Das ist die Wetter- und Hausseite der Bittkau's aus Magdeburg Ottersleben


Hier werden aktuelle Daten aus der privaten Wetterstation und

andere lokale Wettervorhersagen bereitgestellt




Thunder radar more information blitzortung!


Rain radar more information rain snow radar



Extrem niedrige Temperatur Gültig von: 10-04-2020 23:00 bis: 11-04-2020 06:00 Warnung für: Extrem niedrige Temperatur Gefahrenstufe: Gelb info button

METAR-Meldungen aus der Umgebung

   
EDDP - Leipzig
Aktualisierung: 10.04.2020 2:50
Teilweise bewölkt  
Teilweise bewölkt  
   Wind: NW 14.8 km/h
Wind: NW 14.8 km/h
Temperatur: 17°C
Taupunkt: 5°C
Luftfeuchte: 45%
Luftdruck: 1025 hPa
Bewölkt: Teilweise bewölkt
Sichtbarkeit: More than 10 km
Bewölkung: Teilweise bewölkt 1463 m
EDDP 101250Z 32008KT 260V020 9999 SCT048 17/05 Q1025 NOSIG
EDDC - Dresden
Aktualisierung: 10.04.2020 2:50
leicht bewölkt  
leicht bewölkt  
   Wind: Norden 20.4 km/h
Wind: Norden 20.4 km/h
Temperatur: 15°C
Taupunkt: 4°C
Luftfeuchte: 48%
Luftdruck: 1024 hPa
Bewölkt: leicht bewölkt
Sichtbarkeit: More than 10 km
Bewölkung: leicht bewölkt 1402.1 m
EDDC 101250Z 35011KT 300V020 9999 FEW046 15/04 Q1024 NOSIG
EDDE - Erfurt
Aktualisierung: 10.04.2020 2:50
leicht bewölkt  
leicht bewölkt  
   Wind: NNW 14.8 km/h
Wind: NNW 14.8 km/h
Temperatur: 17°C
Taupunkt: 5°C
Luftfeuchte: 45%
Luftdruck: 1024 hPa
Bewölkt: leicht bewölkt
Sichtbarkeit: More than 10 km
Bewölkung: leicht bewölkt 1402.1 m
EDDE 101250Z 33008KT 240V010 9999 FEW046 17/05 Q1024 NOSIG
EDVE - Braunschweig
Aktualisierung: 09.04.2020 6:50
Nicht aktuell
Klar  
Klar  
   Wind: NNW 16.7 km/h
Wind: NNW 16.7 km/h
Temperatur: 18°C
Taupunkt: 4°C
Luftfeuchte: 40%
Luftdruck: 1024 hPa
Sichtbarkeit: More than 10 km
Bewölkung: Klar
EDVE 091650Z 33009KT 300V360 CAVOK 18/04 Q1024
EDDV - Hannover
Aktualisierung: 10.04.2020 2:50
Klar  
Klar  
   Wind: WNW 14.8 km/h
Wind: WNW 14.8 km/h
Temperatur: 14°C
Taupunkt: -3°C
Luftfeuchte: 31%
Luftdruck: 1026 hPa
Sichtbarkeit: More than 10 km
Bewölkung: Klar
EDDV 101250Z 30008KT 220V340 CAVOK 14/M03 Q1026 NOSIG
EDDT - Berlin
Aktualisierung: 10.04.2020 2:50
Klar  
Klar  
   Wind: Westen 18.5 km/h
Wind: Westen 18.5 km/h
Temperatur: 16°C
Taupunkt: 0°C
Luftfeuchte: 34%
Luftdruck: 1025 hPa
Sichtbarkeit: More than 10 km
Bewölkung: Klar
EDDT 101250Z 27010KT CAVOK 16/00 Q1025 NOSIG
EDDE - Schwerin
Aktualisierung: 10.04.2020 2:50
leicht bewölkt  
leicht bewölkt  
   Wind: NNW 14.8 km/h
Wind: NNW 14.8 km/h
Temperatur: 17°C
Taupunkt: 5°C
Luftfeuchte: 45%
Luftdruck: 1024 hPa
Bewölkt: leicht bewölkt
Sichtbarkeit: More than 10 km
Bewölkung: leicht bewölkt 1402.1 m
EDDE 101250Z 33008KT 240V010 9999 FEW046 17/05 Q1024 NOSIG
EDHI - Hamburg
Aktualisierung: 10.04.2020 2:50
leicht bewölkt  
leicht bewölkt  
   Wind: Westen 16.7 km/h
Wind: Westen 16.7 km/h
Temperatur: 11°C
Taupunkt: 3°C
Luftfeuchte: 58%
Luftdruck: 1027 hPa
Bewölkt: leicht bewölkt
Sichtbarkeit: More than 10 km
Bewölkung: leicht bewölkt 7620 m
EDHI 101250Z AUTO 28009KT 240V300 9999 // FEW250/// 11/03 Q1027
EDDK - Köln-Bonn
Aktualisierung: 10.04.2020 2:50
Klar  
Klar  
   Wind: Westen 14.8 km/h
Wind: Westen 14.8 km/h
Temperatur: 22°C
Taupunkt: 7°C
Luftfeuchte: 38%
Luftdruck: 1024 hPa
Sichtbarkeit: More than 10 km
Bewölkung: Klar
EDDK 101250Z 27008KT 220V320 CAVOK 22/07 Q1024 NOSIG
EDHL - Lübeck-Blankensee
Aktualisierung: 10.04.2020 2:50
Klar  
Klar  
   Wind: variiert 7.4 km/h
Wind: variiert 7.4 km/h
Temperatur: 11°C
Taupunkt: 0°C
Luftfeuchte: 47%
Luftdruck: 1027 hPa
Sichtbarkeit: More than 10 km
Bewölkung: Klar
EDHL 101250Z VRB04KT CAVOK 11/00 Q1027
  

Script entwickelt von  Saratoga-weather.org Angepasst für das Template von  Weerstation Leuven

Sie finden die Wetterinfo auch auf:

Wetternetzwerk Deutschland

European Weather Network

Weather Underground

Regionalwetter-SA

wetter.com

wxforum.de

Genutzte Hardware, Software und WEB Anbieter:

Wetterstation
Ventus W928-Ultimate

Wetterprogramm
Meteohub

WetterComputer
RaspberryPI

Anbieter
WEB Provider One.com

Ventus W928-Ultimate

Meteohub

RaspberryPI

WEB Provider One.com